sensor_id;sensor_type;location;lat;lon;timestamp;P1;durP1;ratioP1;P2;durP2;ratioP2
63110;SDS011;49201;53.426;10.300;2022-11-15T00:01:49;50.77;;;31.07;;
63110;SDS011;49201;53.426;10.300;2022-11-15T00:04:33;52.03;;;31.00;;
63110;SDS011;49201;53.426;10.300;2022-11-15T00:07:17;47.33;;;28.87;;
63110;SDS011;49201;53.426;10.300;2022-11-15T00:10:01;51.63;;;29.77;;
63110;SDS011;49201;53.426;10.300;2022-11-15T00:12:45;49.90;;;30.50;;
63110;SDS011;49201;53.426;10.300;2022-11-15T00:15:29;50.07;;;30.03;;
63110;SDS011;49201;53.426;10.300;2022-11-15T00:18:13;49.90;;;30.17;;
63110;SDS011;49201;53.426;10.300;2022-11-15T00:21:05;50.90;;;31.67;;
63110;SDS011;49201;53.426;10.300;2022-11-15T00:23:51;50.53;;;31.57;;
63110;SDS011;49201;53.426;10.300;2022-11-15T00:26:35;51.73;;;30.70;;
63110;SDS011;49201;53.426;10.300;2022-11-15T00:29:19;55.43;;;32.43;;
63110;SDS011;49201;53.426;10.300;2022-11-15T00:32:03;50.73;;;31.47;;
63110;SDS011;49201;53.426;10.300;2022-11-15T00:34:47;51.30;;;31.27;;
63110;SDS011;49201;53.426;10.300;2022-11-15T00:37:30;49.53;;;29.83;;
63110;SDS011;49201;53.426;10.300;2022-11-15T00:40:14;48.57;;;30.27;;
63110;SDS011;49201;53.426;10.300;2022-11-15T00:42:59;49.57;;;29.37;;
63110;SDS011;49201;53.426;10.300;2022-11-15T00:45:43;45.50;;;29.03;;
63110;SDS011;49201;53.426;10.300;2022-11-15T00:48:27;47.83;;;30.27;;
63110;SDS011;49201;53.426;10.300;2022-11-15T00:51:11;46.10;;;29.40;;
63110;SDS011;49201;53.426;10.300;2022-11-15T00:53:55;45.30;;;29.27;;
63110;SDS011;49201;53.426;10.300;2022-11-15T00:56:38;45.03;;;28.47;;
63110;SDS011;49201;53.426;10.300;2022-11-15T00:59:22;48.00;;;28.97;;
63110;SDS011;49201;53.426;10.300;2022-11-15T01:02:06;42.03;;;27.73;;
63110;SDS011;49201;53.426;10.300;2022-11-15T01:04:50;47.20;;;29.33;;
63110;SDS011;49201;53.426;10.300;2022-11-15T01:07:34;45.73;;;29.13;;
63110;SDS011;49201;53.426;10.300;2022-11-15T01:10:18;45.93;;;30.07;;
63110;SDS011;49201;53.426;10.300;2022-11-15T01:13:03;46.93;;;29.20;;
63110;SDS011;49201;53.426;10.300;2022-11-15T01:15:47;47.03;;;29.23;;
63110;SDS011;49201;53.426;10.300;2022-11-15T01:18:31;42.57;;;28.43;;
63110;SDS011;49201;53.426;10.300;2022-11-15T01:21:16;47.20;;;29.20;;
63110;SDS011;49201;53.426;10.300;2022-11-15T01:24:01;43.77;;;27.47;;
63110;SDS011;49201;53.426;10.300;2022-11-15T01:26:45;40.90;;;26.23;;
63110;SDS011;49201;53.426;10.300;2022-11-15T01:29:29;42.00;;;27.20;;
63110;SDS011;49201;53.426;10.300;2022-11-15T01:32:13;44.73;;;27.20;;
63110;SDS011;49201;53.426;10.300;2022-11-15T01:34:57;45.37;;;27.97;;
63110;SDS011;49201;53.426;10.300;2022-11-15T01:37:41;40.80;;;26.07;;
63110;SDS011;49201;53.426;10.300;2022-11-15T01:40:25;43.47;;;27.13;;
63110;SDS011;49201;53.426;10.300;2022-11-15T01:43:19;43.40;;;27.67;;
63110;SDS011;49201;53.426;10.300;2022-11-15T01:49:02;39.40;;;25.93;;
63110;SDS011;49201;53.426;10.300;2022-11-15T01:51:49;41.00;;;25.87;;
63110;SDS011;49201;53.426;10.300;2022-11-15T01:54:34;37.43;;;24.77;;
63110;SDS011;49201;53.426;10.300;2022-11-15T01:57:19;39.03;;;25.53;;
63110;SDS011;49201;53.426;10.300;2022-11-15T02:00:04;38.83;;;24.57;;
63110;SDS011;49201;53.426;10.300;2022-11-15T02:02:49;36.43;;;23.97;;
63110;SDS011;49201;53.426;10.300;2022-11-15T02:05:34;37.50;;;23.90;;
63110;SDS011;49201;53.426;10.300;2022-11-15T02:08:20;40.20;;;25.17;;
63110;SDS011;49201;53.426;10.300;2022-11-15T02:11:06;39.97;;;25.13;;
63110;SDS011;49201;53.426;10.300;2022-11-15T02:13:52;44.20;;;26.87;;
63110;SDS011;49201;53.426;10.300;2022-11-15T02:16:58;41.57;;;25.90;;
63110;SDS011;49201;53.426;10.300;2022-11-15T02:23:03;41.00;;;27.57;;
63110;SDS011;49201;53.426;10.300;2022-11-15T02:32:14;43.17;;;26.10;;
63110;SDS011;49201;53.426;10.300;2022-11-15T02:38:15;39.57;;;25.10;;
63110;SDS011;49201;53.426;10.300;2022-11-15T02:41:11;37.33;;;24.43;;
63110;SDS011;49201;53.426;10.300;2022-11-15T02:44:07;39.87;;;24.80;;
63110;SDS011;49201;53.426;10.300;2022-11-15T02:47:03;36.60;;;22.53;;
63110;SDS011;49201;53.426;10.300;2022-11-15T02:49:58;37.70;;;24.50;;
63110;SDS011;49201;53.426;10.300;2022-11-15T02:52:46;35.93;;;22.97;;
63110;SDS011;49201;53.426;10.300;2022-11-15T02:55:37;37.23;;;22.13;;
63110;SDS011;49201;53.426;10.300;2022-11-15T03:10:22;36.10;;;22.07;;
63110;SDS011;49201;53.426;10.300;2022-11-15T03:16:15;35.60;;;22.90;;
63110;SDS011;49201;53.426;10.300;2022-11-15T03:22:14;37.07;;;23.53;;
63110;SDS011;49201;53.426;10.300;2022-11-15T03:25:02;38.07;;;24.07;;
63110;SDS011;49201;53.426;10.300;2022-11-15T03:27:50;33.70;;;22.63;;
63110;SDS011;49201;53.426;10.300;2022-11-15T03:30:37;35.63;;;23.53;;
63110;SDS011;49201;53.426;10.300;2022-11-15T03:33:23;39.20;;;23.80;;
63110;SDS011;49201;53.426;10.300;2022-11-15T03:36:08;35.30;;;22.13;;
63110;SDS011;49201;53.426;10.300;2022-11-15T03:38:53;36.70;;;24.10;;
63110;SDS011;49201;53.426;10.300;2022-11-15T03:41:56;36.63;;;23.80;;
63110;SDS011;49201;53.426;10.300;2022-11-15T03:47:48;36.87;;;23.33;;
63110;SDS011;49201;53.426;10.300;2022-11-15T03:50:37;37.53;;;23.03;;
63110;SDS011;49201;53.426;10.300;2022-11-15T03:53:22;40.50;;;23.47;;
63110;SDS011;49201;53.426;10.300;2022-11-15T03:56:06;37.83;;;22.53;;
63110;SDS011;49201;53.426;10.300;2022-11-15T03:58:50;34.63;;;22.57;;
63110;SDS011;49201;53.426;10.300;2022-11-15T04:01:34;37.27;;;23.47;;
63110;SDS011;49201;53.426;10.300;2022-11-15T04:04:18;37.53;;;23.77;;
63110;SDS011;49201;53.426;10.300;2022-11-15T04:07:02;34.77;;;22.97;;
63110;SDS011;49201;53.426;10.300;2022-11-15T04:09:46;35.00;;;22.87;;
63110;SDS011;49201;53.426;10.300;2022-11-15T04:12:46;33.73;;;21.67;;
63110;SDS011;49201;53.426;10.300;2022-11-15T04:15:31;36.73;;;22.53;;
63110;SDS011;49201;53.426;10.300;2022-11-15T04:18:15;34.57;;;22.60;;
63110;SDS011;49201;53.426;10.300;2022-11-15T04:20:59;34.90;;;22.23;;
63110;SDS011;49201;53.426;10.300;2022-11-15T04:24:02;35.13;;;22.87;;
63110;SDS011;49201;53.426;10.300;2022-11-15T04:26:49;34.57;;;21.47;;
63110;SDS011;49201;53.426;10.300;2022-11-15T04:29:33;34.80;;;22.37;;
63110;SDS011;49201;53.426;10.300;2022-11-15T04:32:18;34.80;;;21.73;;
63110;SDS011;49201;53.426;10.300;2022-11-15T04:35:02;32.70;;;20.97;;
63110;SDS011;49201;53.426;10.300;2022-11-15T04:37:46;31.23;;;21.17;;
63110;SDS011;49201;53.426;10.300;2022-11-15T04:40:31;35.93;;;21.00;;
63110;SDS011;49201;53.426;10.300;2022-11-15T04:43:15;31.83;;;21.10;;
63110;SDS011;49201;53.426;10.300;2022-11-15T04:45:58;34.97;;;21.87;;
63110;SDS011;49201;53.426;10.300;2022-11-15T04:48:42;34.23;;;22.03;;
63110;SDS011;49201;53.426;10.300;2022-11-15T04:51:26;34.97;;;22.83;;
63110;SDS011;49201;53.426;10.300;2022-11-15T04:54:10;34.37;;;22.03;;
63110;SDS011;49201;53.426;10.300;2022-11-15T04:56:54;36.53;;;23.47;;
63110;SDS011;49201;53.426;10.300;2022-11-15T04:59:38;40.90;;;23.80;;
63110;SDS011;49201;53.426;10.300;2022-11-15T05:02:22;33.90;;;21.93;;
63110;SDS011;49201;53.426;10.300;2022-11-15T05:05:06;38.00;;;22.87;;
63110;SDS011;49201;53.426;10.300;2022-11-15T05:07:51;38.23;;;23.90;;
63110;SDS011;49201;53.426;10.300;2022-11-15T05:10:34;35.97;;;22.33;;
63110;SDS011;49201;53.426;10.300;2022-11-15T05:13:18;35.60;;;23.40;;
63110;SDS011;49201;53.426;10.300;2022-11-15T05:16:02;36.67;;;23.93;;
63110;SDS011;49201;53.426;10.300;2022-11-15T05:18:50;38.37;;;24.87;;
63110;SDS011;49201;53.426;10.300;2022-11-15T05:21:35;37.63;;;23.90;;
63110;SDS011;49201;53.426;10.300;2022-11-15T05:24:19;38.70;;;25.17;;
63110;SDS011;49201;53.426;10.300;2022-11-15T05:27:03;38.80;;;25.13;;
63110;SDS011;49201;53.426;10.300;2022-11-15T05:29:47;38.80;;;25.40;;
63110;SDS011;49201;53.426;10.300;2022-11-15T05:32:30;35.57;;;23.40;;
63110;SDS011;49201;53.426;10.300;2022-11-15T05:35:30;36.70;;;23.80;;
63110;SDS011;49201;53.426;10.300;2022-11-15T05:38:17;33.50;;;23.23;;
63110;SDS011;49201;53.426;10.300;2022-11-15T05:41:01;35.57;;;23.37;;
63110;SDS011;49201;53.426;10.300;2022-11-15T05:43:46;40.63;;;24.37;;
63110;SDS011;49201;53.426;10.300;2022-11-15T05:46:33;38.27;;;25.07;;
63110;SDS011;49201;53.426;10.300;2022-11-15T05:49:19;36.47;;;23.07;;
63110;SDS011;49201;53.426;10.300;2022-11-15T05:52:07;35.60;;;22.93;;
63110;SDS011;49201;53.426;10.300;2022-11-15T05:54:57;37.53;;;23.67;;
63110;SDS011;49201;53.426;10.300;2022-11-15T05:57:41;30.47;;;21.10;;
63110;SDS011;49201;53.426;10.300;2022-11-15T06:00:25;33.60;;;23.07;;
63110;SDS011;49201;53.426;10.300;2022-11-15T06:03:09;35.07;;;22.73;;
63110;SDS011;49201;53.426;10.300;2022-11-15T06:05:53;31.97;;;22.17;;
63110;SDS011;49201;53.426;10.300;2022-11-15T06:08:38;32.30;;;22.47;;
63110;SDS011;49201;53.426;10.300;2022-11-15T06:11:22;35.60;;;22.17;;
63110;SDS011;49201;53.426;10.300;2022-11-15T06:14:06;33.40;;;21.37;;
63110;SDS011;49201;53.426;10.300;2022-11-15T06:16:50;34.33;;;21.60;;
63110;SDS011;49201;53.426;10.300;2022-11-15T06:19:34;36.23;;;22.63;;
63110;SDS011;49201;53.426;10.300;2022-11-15T06:22:18;36.23;;;22.57;;
63110;SDS011;49201;53.426;10.300;2022-11-15T06:25:02;35.97;;;23.03;;
63110;SDS011;49201;53.426;10.300;2022-11-15T06:27:50;36.80;;;22.50;;
63110;SDS011;49201;53.426;10.300;2022-11-15T06:30:35;31.43;;;21.47;;
63110;SDS011;49201;53.426;10.300;2022-11-15T06:33:19;34.77;;;22.97;;
63110;SDS011;49201;53.426;10.300;2022-11-15T06:36:07;35.37;;;22.37;;
63110;SDS011;49201;53.426;10.300;2022-11-15T06:38:53;30.37;;;21.40;;
63110;SDS011;49201;53.426;10.300;2022-11-15T06:41:37;35.33;;;22.50;;
63110;SDS011;49201;53.426;10.300;2022-11-15T06:44:21;33.43;;;22.07;;
63110;SDS011;49201;53.426;10.300;2022-11-15T06:47:05;32.60;;;21.80;;
63110;SDS011;49201;53.426;10.300;2022-11-15T06:49:49;30.77;;;21.67;;
63110;SDS011;49201;53.426;10.300;2022-11-15T06:52:33;32.97;;;22.97;;
63110;SDS011;49201;53.426;10.300;2022-11-15T06:55:17;34.97;;;22.03;;
63110;SDS011;49201;53.426;10.300;2022-11-15T06:58:01;34.40;;;21.87;;
63110;SDS011;49201;53.426;10.300;2022-11-15T07:00:45;33.33;;;21.40;;
63110;SDS011;49201;53.426;10.300;2022-11-15T07:03:29;37.27;;;24.00;;
63110;SDS011;49201;53.426;10.300;2022-11-15T07:06:14;30.97;;;22.47;;
63110;SDS011;49201;53.426;10.300;2022-11-15T07:08:58;31.03;;;21.10;;
63110;SDS011;49201;53.426;10.300;2022-11-15T07:11:42;34.77;;;23.13;;
63110;SDS011;49201;53.426;10.300;2022-11-15T07:14:26;44.63;;;26.97;;
63110;SDS011;49201;53.426;10.300;2022-11-15T07:17:10;37.47;;;25.77;;
63110;SDS011;49201;53.426;10.300;2022-11-15T07:19:54;32.67;;;22.57;;
63110;SDS011;49201;53.426;10.300;2022-11-15T07:22:38;33.47;;;21.87;;
63110;SDS011;49201;53.426;10.300;2022-11-15T07:25:22;33.67;;;21.97;;
63110;SDS011;49201;53.426;10.300;2022-11-15T07:28:06;32.83;;;22.20;;
63110;SDS011;49201;53.426;10.300;2022-11-15T07:30:51;32.47;;;21.83;;
63110;SDS011;49201;53.426;10.300;2022-11-15T07:33:35;29.83;;;20.83;;
63110;SDS011;49201;53.426;10.300;2022-11-15T07:36:19;34.47;;;22.67;;
63110;SDS011;49201;53.426;10.300;2022-11-15T07:39:02;30.67;;;21.33;;
63110;SDS011;49201;53.426;10.300;2022-11-15T07:41:46;31.83;;;21.57;;
63110;SDS011;49201;53.426;10.300;2022-11-15T07:44:31;31.27;;;21.77;;
63110;SDS011;49201;53.426;10.300;2022-11-15T07:47:15;32.77;;;21.97;;
63110;SDS011;49201;53.426;10.300;2022-11-15T07:49:59;33.93;;;21.67;;
63110;SDS011;49201;53.426;10.300;2022-11-15T07:52:44;33.07;;;21.77;;
63110;SDS011;49201;53.426;10.300;2022-11-15T07:55:28;36.83;;;22.77;;
63110;SDS011;49201;53.426;10.300;2022-11-15T07:58:13;32.03;;;21.90;;
63110;SDS011;49201;53.426;10.300;2022-11-15T08:00:57;31.70;;;20.90;;
63110;SDS011;49201;53.426;10.300;2022-11-15T08:03:40;38.53;;;23.43;;
63110;SDS011;49201;53.426;10.300;2022-11-15T08:06:25;34.27;;;22.13;;
63110;SDS011;49201;53.426;10.300;2022-11-15T08:09:08;36.00;;;23.73;;
63110;SDS011;49201;53.426;10.300;2022-11-15T08:11:52;35.50;;;23.63;;
63110;SDS011;49201;53.426;10.300;2022-11-15T08:14:36;32.60;;;21.23;;
63110;SDS011;49201;53.426;10.300;2022-11-15T08:17:20;38.77;;;23.23;;
63110;SDS011;49201;53.426;10.300;2022-11-15T08:20:05;30.60;;;20.63;;
63110;SDS011;49201;53.426;10.300;2022-11-15T08:22:49;35.73;;;22.93;;
63110;SDS011;49201;53.426;10.300;2022-11-15T08:25:34;39.87;;;22.03;;
63110;SDS011;49201;53.426;10.300;2022-11-15T08:28:19;30.00;;;19.43;;
63110;SDS011;49201;53.426;10.300;2022-11-15T08:31:03;29.63;;;21.23;;
63110;SDS011;49201;53.426;10.300;2022-11-15T08:33:47;30.10;;;21.20;;
63110;SDS011;49201;53.426;10.300;2022-11-15T08:36:31;32.53;;;21.23;;
63110;SDS011;49201;53.426;10.300;2022-11-15T08:39:16;27.27;;;20.40;;
63110;SDS011;49201;53.426;10.300;2022-11-15T08:42:00;29.37;;;19.83;;
63110;SDS011;49201;53.426;10.300;2022-11-15T08:44:44;28.50;;;19.53;;
63110;SDS011;49201;53.426;10.300;2022-11-15T08:47:28;29.17;;;19.37;;
63110;SDS011;49201;53.426;10.300;2022-11-15T08:50:12;28.13;;;18.53;;
63110;SDS011;49201;53.426;10.300;2022-11-15T08:52:57;23.87;;;18.03;;
63110;SDS011;49201;53.426;10.300;2022-11-15T08:55:41;24.33;;;16.57;;
63110;SDS011;49201;53.426;10.300;2022-11-15T08:58:25;23.37;;;17.23;;
63110;SDS011;49201;53.426;10.300;2022-11-15T09:01:16;22.30;;;16.93;;
63110;SDS011;49201;53.426;10.300;2022-11-15T09:04:02;21.47;;;16.50;;
63110;SDS011;49201;53.426;10.300;2022-11-15T09:06:47;21.80;;;16.83;;
63110;SDS011;49201;53.426;10.300;2022-11-15T09:09:32;19.63;;;15.77;;
63110;SDS011;49201;53.426;10.300;2022-11-15T09:12:16;20.47;;;15.70;;
63110;SDS011;49201;53.426;10.300;2022-11-15T09:14:59;18.73;;;13.90;;
63110;SDS011;49201;53.426;10.300;2022-11-15T09:17:44;14.20;;;11.30;;
63110;SDS011;49201;53.426;10.300;2022-11-15T09:20:27;15.83;;;11.80;;
63110;SDS011;49201;53.426;10.300;2022-11-15T09:23:11;13.03;;;10.63;;
63110;SDS011;49201;53.426;10.300;2022-11-15T09:26:02;13.17;;;10.93;;
63110;SDS011;49201;53.426;10.300;2022-11-15T09:28:47;13.43;;;11.90;;
63110;SDS011;49201;53.426;10.300;2022-11-15T09:31:31;13.00;;;11.70;;
63110;SDS011;49201;53.426;10.300;2022-11-15T09:34:16;13.07;;;11.50;;
63110;SDS011;49201;53.426;10.300;2022-11-15T09:37:00;12.80;;;11.50;;
63110;SDS011;49201;53.426;10.300;2022-11-15T09:39:44;14.30;;;11.63;;
63110;SDS011;49201;53.426;10.300;2022-11-15T09:51:30;12.37;;;11.03;;
63110;SDS011;49201;53.426;10.300;2022-11-15T09:56:37;13.30;;;11.93;;
63110;SDS011;49201;53.426;10.300;2022-11-15T10:01:47;15.50;;;12.63;;
63110;SDS011;49201;53.426;10.300;2022-11-15T10:04:14;15.50;;;13.33;;
63110;SDS011;49201;53.426;10.300;2022-11-15T10:06:42;16.73;;;13.00;;
63110;SDS011;49201;53.426;10.300;2022-11-15T10:11:42;15.60;;;12.80;;
63110;SDS011;49201;53.426;10.300;2022-11-15T10:14:15;13.90;;;12.07;;
63110;SDS011;49201;53.426;10.300;2022-11-15T10:19:31;13.27;;;11.60;;
63110;SDS011;49201;53.426;10.300;2022-11-15T10:24:42;12.33;;;11.07;;
63110;SDS011;49201;53.426;10.300;2022-11-15T10:27:11;11.83;;;10.57;;
63110;SDS011;49201;53.426;10.300;2022-11-15T10:29:42;12.33;;;10.17;;
63110;SDS011;49201;53.426;10.300;2022-11-15T10:32:11;15.63;;;11.70;;
63110;SDS011;49201;53.426;10.300;2022-11-15T10:34:37;14.10;;;11.00;;
63110;SDS011;49201;53.426;10.300;2022-11-15T10:37:03;13.80;;;11.37;;
63110;SDS011;49201;53.426;10.300;2022-11-15T10:39:28;14.10;;;12.50;;
63110;SDS011;49201;53.426;10.300;2022-11-15T10:41:54;15.20;;;12.50;;
63110;SDS011;49201;53.426;10.300;2022-11-15T10:44:28;15.93;;;13.50;;
63110;SDS011;49201;53.426;10.300;2022-11-15T10:49:20;15.60;;;13.40;;
63110;SDS011;49201;53.426;10.300;2022-11-15T10:51:57;15.30;;;13.00;;
63110;SDS011;49201;53.426;10.300;2022-11-15T10:54:42;16.97;;;13.53;;
63110;SDS011;49201;53.426;10.300;2022-11-15T10:57:14;14.27;;;11.97;;
63110;SDS011;49201;53.426;10.300;2022-11-15T10:59:42;17.07;;;13.50;;
63110;SDS011;49201;53.426;10.300;2022-11-15T11:02:23;18.13;;;13.17;;
63110;SDS011;49201;53.426;10.300;2022-11-15T11:04:53;15.43;;;12.30;;
63110;SDS011;49201;53.426;10.300;2022-11-15T11:07:20;15.10;;;13.07;;
63110;SDS011;49201;53.426;10.300;2022-11-15T11:09:49;15.30;;;12.93;;
63110;SDS011;49201;53.426;10.300;2022-11-15T11:12:44;14.33;;;12.40;;
63110;SDS011;49201;53.426;10.300;2022-11-15T11:15:11;17.23;;;12.97;;
63110;SDS011;49201;53.426;10.300;2022-11-15T11:17:57;13.60;;;11.73;;
63110;SDS011;49201;53.426;10.300;2022-11-15T11:20:49;14.33;;;11.37;;
63110;SDS011;49201;53.426;10.300;2022-11-15T11:29:44;15.03;;;11.60;;
63110;SDS011;49201;53.426;10.300;2022-11-15T11:31:58;15.77;;;11.50;;
63110;SDS011;49201;53.426;10.300;2022-11-15T11:37:40;17.53;;;12.67;;
63110;SDS011;49201;53.426;10.300;2022-11-15T11:40:24;15.63;;;12.77;;
63110;SDS011;49201;53.426;10.300;2022-11-15T11:43:08;14.70;;;11.53;;
63110;SDS011;49201;53.426;10.300;2022-11-15T11:50:27;14.30;;;11.43;;
63110;SDS011;49201;53.426;10.300;2022-11-15T11:52:57;16.67;;;12.20;;
63110;SDS011;49201;53.426;10.300;2022-11-15T11:55:36;17.73;;;12.50;;
63110;SDS011;49201;53.426;10.300;2022-11-15T12:00:47;15.43;;;11.57;;
63110;SDS011;49201;53.426;10.300;2022-11-15T12:05:59;15.07;;;11.73;;
63110;SDS011;49201;53.426;10.300;2022-11-15T12:08:41;13.23;;;10.93;;
63110;SDS011;49201;53.426;10.300;2022-11-15T12:11:34;15.17;;;11.57;;
63110;SDS011;49201;53.426;10.300;2022-11-15T12:14:27;16.57;;;11.50;;
63110;SDS011;49201;53.426;10.300;2022-11-15T12:17:01;16.80;;;11.60;;
63110;SDS011;49201;53.426;10.300;2022-11-15T12:19:27;14.13;;;11.13;;
63110;SDS011;49201;53.426;10.300;2022-11-15T12:21:56;13.30;;;11.70;;
63110;SDS011;49201;53.426;10.300;2022-11-15T12:24:40;13.30;;;11.33;;
63110;SDS011;49201;53.426;10.300;2022-11-15T12:30:20;13.70;;;10.57;;
63110;SDS011;49201;53.426;10.300;2022-11-15T12:35:35;12.30;;;9.80;;
63110;SDS011;49201;53.426;10.300;2022-11-15T12:38:04;12.23;;;9.70;;
63110;SDS011;49201;53.426;10.300;2022-11-15T12:40:31;13.50;;;10.40;;
63110;SDS011;49201;53.426;10.300;2022-11-15T12:45:28;11.10;;;9.57;;
63110;SDS011;49201;53.426;10.300;2022-11-15T13:01:09;14.07;;;10.03;;
63110;SDS011;49201;53.426;10.300;2022-11-15T13:03:35;11.63;;;9.97;;
63110;SDS011;49201;53.426;10.300;2022-11-15T13:06:34;13.43;;;10.17;;
63110;SDS011;49201;53.426;10.300;2022-11-15T13:09:03;10.80;;;9.60;;
63110;SDS011;49201;53.426;10.300;2022-11-15T13:11:48;12.80;;;10.57;;
63110;SDS011;49201;53.426;10.300;2022-11-15T13:20:32;13.53;;;10.13;;
63110;SDS011;49201;53.426;10.300;2022-11-15T13:22:42;13.60;;;10.27;;
63110;SDS011;49201;53.426;10.300;2022-11-15T13:25:18;11.97;;;9.97;;
63110;SDS011;49201;53.426;10.300;2022-11-15T13:27:53;13.50;;;10.27;;
63110;SDS011;49201;53.426;10.300;2022-11-15T13:30:24;12.97;;;10.13;;
63110;SDS011;49201;53.426;10.300;2022-11-15T13:32:51;12.40;;;9.87;;
63110;SDS011;49201;53.426;10.300;2022-11-15T13:35:22;13.40;;;10.50;;
63110;SDS011;49201;53.426;10.300;2022-11-15T13:37:49;12.30;;;10.47;;
63110;SDS011;49201;53.426;10.300;2022-11-15T13:40:26;13.03;;;10.53;;
63110;SDS011;49201;53.426;10.300;2022-11-15T13:42:58;13.43;;;10.00;;
63110;SDS011;49201;53.426;10.300;2022-11-15T13:45:24;12.33;;;10.00;;
63110;SDS011;49201;53.426;10.300;2022-11-15T13:47:56;11.43;;;9.33;;
63110;SDS011;49201;53.426;10.300;2022-11-15T13:50:25;10.47;;;9.23;;
63110;SDS011;49201;53.426;10.300;2022-11-15T13:52:57;13.43;;;9.50;;
63110;SDS011;49201;53.426;10.300;2022-11-15T13:55:26;13.07;;;9.63;;
63110;SDS011;49201;53.426;10.300;2022-11-15T13:57:57;11.33;;;9.03;;
63110;SDS011;49201;53.426;10.300;2022-11-15T14:00:43;9.70;;;7.80;;
63110;SDS011;49201;53.426;10.300;2022-11-15T14:05:39;12.50;;;9.57;;
63110;SDS011;49201;53.426;10.300;2022-11-15T14:08:22;12.07;;;9.20;;
63110;SDS011;49201;53.426;10.300;2022-11-15T14:10:48;11.57;;;9.27;;
63110;SDS011;49201;53.426;10.300;2022-11-15T14:13:33;9.83;;;8.07;;
63110;SDS011;49201;53.426;10.300;2022-11-15T14:16:13;9.10;;;8.20;;
63110;SDS011;49201;53.426;10.300;2022-11-15T14:18:52;9.07;;;7.47;;
63110;SDS011;49201;53.426;10.300;2022-11-15T14:21:18;10.93;;;8.30;;
63110;SDS011;49201;53.426;10.300;2022-11-15T14:23:44;10.83;;;8.87;;
63110;SDS011;49201;53.426;10.300;2022-11-15T14:26:27;11.63;;;10.00;;
63110;SDS011;49201;53.426;10.300;2022-11-15T14:28:54;11.47;;;10.03;;
63110;SDS011;49201;53.426;10.300;2022-11-15T14:31:19;11.83;;;9.63;;
63110;SDS011;49201;53.426;10.300;2022-11-15T14:33:46;14.00;;;9.63;;
63110;SDS011;49201;53.426;10.300;2022-11-15T14:36:21;12.80;;;9.57;;
63110;SDS011;49201;53.426;10.300;2022-11-15T14:38:46;13.53;;;10.83;;
63110;SDS011;49201;53.426;10.300;2022-11-15T14:41:33;14.27;;;10.00;;
63110;SDS011;49201;53.426;10.300;2022-11-15T14:44:02;13.93;;;10.17;;
63110;SDS011;49201;53.426;10.300;2022-11-15T14:46:28;14.47;;;10.93;;
63110;SDS011;49201;53.426;10.300;2022-11-15T14:48:54;11.67;;;9.80;;
63110;SDS011;49201;53.426;10.300;2022-11-15T14:51:19;12.80;;;9.90;;
63110;SDS011;49201;53.426;10.300;2022-11-15T14:53:45;13.07;;;9.97;;
63110;SDS011;49201;53.426;10.300;2022-11-15T14:56:12;13.07;;;10.13;;
63110;SDS011;49201;53.426;10.300;2022-11-15T14:58:38;12.27;;;9.40;;
63110;SDS011;49201;53.426;10.300;2022-11-15T15:03:51;14.13;;;9.17;;
63110;SDS011;49201;53.426;10.300;2022-11-15T15:06:19;11.63;;;9.83;;
63110;SDS011;49201;53.426;10.300;2022-11-15T15:08:45;11.63;;;9.33;;
63110;SDS011;49201;53.426;10.300;2022-11-15T15:11:15;10.47;;;9.03;;
63110;SDS011;49201;53.426;10.300;2022-11-15T15:13:45;12.10;;;8.87;;
63110;SDS011;49201;53.426;10.300;2022-11-15T15:16:11;12.67;;;9.80;;
63110;SDS011;49201;53.426;10.300;2022-11-15T15:18:36;12.67;;;8.90;;
63110;SDS011;49201;53.426;10.300;2022-11-15T15:21:02;12.10;;;9.03;;
63110;SDS011;49201;53.426;10.300;2022-11-15T15:23:32;11.70;;;9.17;;
63110;SDS011;49201;53.426;10.300;2022-11-15T15:25:58;12.33;;;9.20;;
63110;SDS011;49201;53.426;10.300;2022-11-15T15:28:23;11.33;;;9.17;;
63110;SDS011;49201;53.426;10.300;2022-11-15T15:30:49;13.10;;;9.77;;
63110;SDS011;49201;53.426;10.300;2022-11-15T15:33:15;12.03;;;9.57;;
63110;SDS011;49201;53.426;10.300;2022-11-15T15:35:41;13.30;;;10.13;;
63110;SDS011;49201;53.426;10.300;2022-11-15T15:38:09;13.83;;;9.83;;
63110;SDS011;49201;53.426;10.300;2022-11-15T15:40:37;13.53;;;10.50;;
63110;SDS011;49201;53.426;10.300;2022-11-15T15:43:03;12.33;;;10.30;;
63110;SDS011;49201;53.426;10.300;2022-11-15T15:45:28;13.17;;;10.57;;
63110;SDS011;49201;53.426;10.300;2022-11-15T15:47:54;11.33;;;9.87;;
63110;SDS011;49201;53.426;10.300;2022-11-15T15:50:31;13.37;;;10.43;;
63110;SDS011;49201;53.426;10.300;2022-11-15T15:52:58;12.53;;;9.40;;
63110;SDS011;49201;53.426;10.300;2022-11-15T15:55:25;12.33;;;10.10;;
63110;SDS011;49201;53.426;10.300;2022-11-15T15:57:51;11.40;;;9.50;;
63110;SDS011;49201;53.426;10.300;2022-11-15T16:00:18;12.80;;;10.40;;
63110;SDS011;49201;53.426;10.300;2022-11-15T16:02:45;11.87;;;9.60;;
63110;SDS011;49201;53.426;10.300;2022-11-15T16:05:11;13.37;;;10.10;;
63110;SDS011;49201;53.426;10.300;2022-11-15T16:07:37;11.90;;;9.87;;
63110;SDS011;49201;53.426;10.300;2022-11-15T16:10:16;11.63;;;9.40;;
63110;SDS011;49201;53.426;10.300;2022-11-15T16:13:02;12.47;;;10.00;;
63110;SDS011;49201;53.426;10.300;2022-11-15T16:15:29;13.10;;;10.50;;
63110;SDS011;49201;53.426;10.300;2022-11-15T16:17:57;12.80;;;10.77;;
63110;SDS011;49201;53.426;10.300;2022-11-15T16:23:05;12.23;;;10.20;;
63110;SDS011;49201;53.426;10.300;2022-11-15T16:28:14;15.13;;;11.40;;
63110;SDS011;49201;53.426;10.300;2022-11-15T16:30:41;18.37;;;13.07;;
63110;SDS011;49201;53.426;10.300;2022-11-15T16:33:06;23.23;;;14.67;;
63110;SDS011;49201;53.426;10.300;2022-11-15T16:35:32;13.80;;;11.03;;
63110;SDS011;49201;53.426;10.300;2022-11-15T16:37:57;15.07;;;11.47;;
63110;SDS011;49201;53.426;10.300;2022-11-15T16:40:24;16.70;;;13.10;;
63110;SDS011;49201;53.426;10.300;2022-11-15T16:42:57;16.77;;;13.53;;
63110;SDS011;49201;53.426;10.300;2022-11-15T16:45:24;18.53;;;13.60;;
63110;SDS011;49201;53.426;10.300;2022-11-15T16:47:51;18.90;;;12.90;;
63110;SDS011;49201;53.426;10.300;2022-11-15T16:50:21;16.03;;;12.97;;
63110;SDS011;49201;53.426;10.300;2022-11-15T16:52:58;18.07;;;14.53;;
63110;SDS011;49201;53.426;10.300;2022-11-15T16:55:25;17.90;;;13.23;;
63110;SDS011;49201;53.426;10.300;2022-11-15T16:57:52;18.43;;;13.40;;
63110;SDS011;49201;53.426;10.300;2022-11-15T17:00:19;24.93;;;16.60;;
63110;SDS011;49201;53.426;10.300;2022-11-15T17:02:47;17.13;;;13.00;;
63110;SDS011;49201;53.426;10.300;2022-11-15T17:05:14;14.77;;;12.73;;
63110;SDS011;49201;53.426;10.300;2022-11-15T17:07:45;15.87;;;12.10;;
63110;SDS011;49201;53.426;10.300;2022-11-15T17:10:14;15.93;;;12.77;;
63110;SDS011;49201;53.426;10.300;2022-11-15T17:12:40;14.20;;;11.77;;
63110;SDS011;49201;53.426;10.300;2022-11-15T17:15:06;14.70;;;11.97;;
63110;SDS011;49201;53.426;10.300;2022-11-15T17:17:32;16.23;;;12.40;;
63110;SDS011;49201;53.426;10.300;2022-11-15T17:19:57;16.37;;;12.33;;